Date,TemperatureHighF,TemperatureAvgF,TemperatureLowF,DewpointHighF,DewpointAvgF,DewpointLowF,HumidityHigh,HumidityAvg,HumidityLow,PressureMaxIn,PressureMinIn,WindSpeedMaxMPH,WindSpeedAvgMPH,GustSpeedMaxMPH,PrecipitationSumIn
2013-9-1,83,69,61,60,54,49,79,61,45,30.25,30.15,9,1,10,0.01
2013-9-2,94,75,58,57,52,48,80,49,23,30.18,30.09,9,1,9,0.00
2013-9-3,102,80,68,57,51,46,57,39,17,30.18,30.11,11,1,13,0.00
2013-9-4,98,77,69,56,52,48,53,43,20,30.25,30.17,10,1,10,0.00
2013-9-5,99,78,65,57,49,41,57,40,16,30.25,30.15,10,1,11,0.00
2013-9-6,101,80,63,52,46,37,57,33,12,30.21,30.10,10,1,10,0.00
2013-9-7,98,79,65,54,44,35,57,33,13,30.19,30.07,8,1,8,0.00
2013-9-8,95,74,59,56,46,38,66,39,20,30.11,29.95,7,1,7,0.03
2013-9-9,88,68,59,56,52,48,88,60,28,30.12,29.95,11,1,11,0.00
2013-9-10,75,61,58,59,57,54,99,89,53,30.22,30.09,9,0,9,0.92
2013-9-11,69,60,57,66,60,57,100,98,86,30.23,30.18,4,0,4,0.27
2013-9-12,70,60,56,66,59,56,100,98,88,30.28,30.19,9,1,9,1.27
2013-9-13,76,63,56,65,58,53,100,86,57,30.20,29.96,13,1,15,0.41
2013-9-14,84,64,56,57,54,50,97,75,36,30.08,29.95,11,0,11,0.00
2013-9-15,63,56,53,58,54,52,99,94,80,30.28,30.07,7,0,7,0.53
2013-9-16,81,62,49,72,54,49,100,80,41,30.26,30.09,7,1,7,0.01
2013-9-17,90,71,58,50,45,36,69,43,17,30.12,29.91,12,2,12,0.00
2013-9-18,85,70,61,49,44,38,56,40,19,29.99,29.87,20,2,20,0.02
2013-9-19,72,60,48,53,43,29,69,55,33,30.20,29.98,8,0,8,0.00
2013-9-20,86,63,47,59,47,41,87,59,28,30.20,30.06,9,0,9,0.00
2013-9-21,89,69,54,52,43,36,73,44,19,30.09,29.89,9,1,9,0.00
2013-9-22,77,65,53,50,43,39,90,47,29,29.90,29.71,17,2,17,0.09
2013-9-23,68,56,47,51,40,29,98,60,26,30.09,29.67,12,2,12,0.85
2013-9-24,84,63,49,50,33,26,43,33,17,30.15,29.93,11,2,12,0.02
2013-9-25,82,69,56,35,30,26,42,24,14,29.93,29.63,18,2,18,0.00
2013-9-26,84,61,42,53,42,28,87,55,22,29.87,29.68,9,1,9,0.00
2013-9-27,51,46,39,49,45,39,99,94,79,30.03,29.80,6,0,6,0.24
2013-9-28,82,52,33,54,34,26,99,56,20,30.15,30.03,8,0,9,0.00
2013-9-29,88,63,43,41,30,23,53,30,15,30.14,29.95,7,1,7,0.00
2013-9-30,91,68,53,48,36,24,51,31,20,29.99,29.86,8,1,8,0.00